Time;durP1;ratioP1;P1;durP2;ratioP2;P2;SDS_P1;SDS_P2;PMS_P1;PMS_P2;Temp;Humidity;BMP_temperature;BMP_pressure;BME280_temperature;BME280_humidity;BME280_pressure;Samples;Min_cycle;Max_cycle;Signal;HPM_P1;HPM_P2
2022/04/16 00:00:58;;;;;;;17.80;12.02;;;12.60;99.90;;;;;;5035593;28;20473;-57
2022/04/16 00:03:25;;;;;;;15.75;11.77;;;12.50;99.90;;;;;;5035918;28;20111;-56
2022/04/16 00:05:53;;;;;;;17.13;11.82;;;12.50;99.90;;;;;;5033472;28;20045;-57
2022/04/16 00:08:20;;;;;;;17.83;11.82;;;12.50;99.90;;;;;;5035466;28;20042;-55
2022/04/16 00:10:47;;;;;;;20.52;11.93;;;12.50;99.90;;;;;;5034853;28;20312;-58
2022/04/16 00:13:15;;;;;;;17.05;11.45;;;12.40;99.90;;;;;;5035931;28;20132;-57
2022/04/16 00:15:42;;;;;;;17.17;10.57;;;12.40;99.90;;;;;;5035937;28;20136;-57
2022/04/16 00:18:09;;;;;;;19.98;11.15;;;12.40;99.90;;;;;;5036618;28;20107;-57
2022/04/16 00:20:43;;;;;;;19.00;10.32;;;12.40;99.90;;;;;;5034356;28;20072;-57
2022/04/16 00:23:10;;;;;;;15.60;11.10;;;12.40;99.90;;;;;;5035442;28;20405;-58
2022/04/16 00:25:37;;;;;;;15.23;10.10;;;12.30;99.90;;;;;;5034058;28;20115;-55
2022/04/16 00:28:04;;;;;;;15.75;10.02;;;12.20;99.90;;;;;;5033888;28;20084;-57
2022/04/16 00:30:37;;;;;;;15.38;9.70;;;12.10;99.90;;;;;;5035530;28;20445;-56
2022/04/16 00:33:08;;;;;;;15.30;9.48;;;12.10;99.90;;;;;;5034954;28;20084;-57
2022/04/16 00:35:34;;;;;;;16.27;9.38;;;12.10;99.90;;;;;;5036746;28;20057;-58
2022/04/16 00:38:01;;;;;;;14.27;9.38;;;12.00;99.90;;;;;;5036768;28;20456;-57
2022/04/16 00:40:28;;;;;;;17.52;9.10;;;12.00;99.90;;;;;;5037195;28;20049;-56
2022/04/16 00:42:55;;;;;;;14.57;9.05;;;11.90;99.90;;;;;;5035060;28;20041;-57
2022/04/16 00:45:22;;;;;;;17.80;9.32;;;11.90;99.90;;;;;;5037176;28;20103;-57
2022/04/16 00:47:49;;;;;;;17.15;9.95;;;11.80;99.90;;;;;;5035461;28;20045;-57
2022/04/16 00:50:15;;;;;;;16.27;9.52;;;11.80;99.90;;;;;;5033906;28;20088;-56
2022/04/16 00:52:44;;;;;;;23.25;10.27;;;11.80;99.90;;;;;;5032429;28;20472;-55
2022/04/16 00:55:12;;;;;;;19.35;8.70;;;11.80;99.90;;;;;;5034037;28;20133;-56
2022/04/16 00:57:40;;;;;;;17.20;9.07;;;11.70;99.90;;;;;;5032366;28;20468;-57
2022/04/16 01:00:08;;;;;;;15.82;9.05;;;11.70;99.90;;;;;;5034057;28;20440;-56
2022/04/16 01:02:35;;;;;;;17.15;9.68;;;11.70;99.90;;;;;;5033489;28;20449;-58
2022/04/16 01:05:06;;;;;;;19.38;10.75;;;11.70;99.90;;;;;;5033871;28;20464;-58
2022/04/16 01:07:34;;;;;;;16.58;9.15;;;11.70;99.90;;;;;;5031844;28;20077;-57
2022/04/16 01:10:00;;;;;;;20.58;9.68;;;11.70;99.90;;;;;;5033562;28;20530;-57
2022/04/16 01:12:27;;;;;;;20.63;11.00;;;11.70;99.90;;;;;;5033076;28;20081;-57
2022/04/16 01:14:56;;;;;;;19.50;9.88;;;11.60;99.90;;;;;;5033721;28;20477;-57
2022/04/16 01:17:23;;;;;;;15.43;9.20;;;11.60;99.90;;;;;;5032684;28;20042;-57
2022/04/16 01:19:50;;;;;;;20.80;10.65;;;11.60;99.90;;;;;;5033098;28;20507;-57
2022/04/16 01:22:20;;;;;;;19.92;10.23;;;11.50;99.90;;;;;;5033504;28;20046;-56
2022/04/16 01:24:48;;;;;;;20.20;11.10;;;11.50;99.90;;;;;;5032938;28;20058;-58
2022/04/16 01:27:17;;;;;;;19.90;10.38;;;11.40;99.90;;;;;;5033293;28;20404;-56
2022/04/16 01:29:44;;;;;;;20.60;11.18;;;11.40;99.90;;;;;;5032893;28;20053;-56
2022/04/16 01:32:11;;;;;;;22.80;12.35;;;11.40;99.90;;;;;;5031981;28;20107;-58
2022/04/16 01:34:38;;;;;;;26.30;13.80;;;11.30;99.90;;;;;;5032923;28;20057;-55
2022/04/16 01:37:05;;;;;;;23.45;13.52;;;11.30;99.90;;;;;;5020091;28;20046;-58
2022/04/16 01:39:32;;;;;;;26.00;13.85;;;11.30;99.90;;;;;;5006140;28;20037;-57
2022/04/16 01:41:59;;;;;;;22.42;12.70;;;11.20;99.90;;;;;;5032842;28;20047;-57
2022/04/16 01:44:25;;;;;;;26.33;12.55;;;11.20;99.90;;;;;;5031580;28;20053;-57
2022/04/16 01:46:52;;;;;;;26.95;14.15;;;11.20;99.90;;;;;;5033066;28;20111;-58
2022/04/16 01:49:20;;;;;;;30.42;13.35;;;11.10;99.90;;;;;;5032664;28;20564;-57
2022/04/16 01:51:48;;;;;;;28.52;13.52;;;11.10;99.90;;;;;;5032540;28;20496;-57
2022/04/16 01:54:15;;;;;;;35.30;17.33;;;11.10;99.90;;;;;;5032680;28;20068;-57
2022/04/16 01:56:42;;;;;;;34.33;14.80;;;11.00;99.90;;;;;;4682250;28;10000395;-57
2022/04/16 01:59:09;;;;;;;33.33;14.68;;;11.00;99.90;;;;;;5027296;28;20135;-58
2022/04/16 02:01:36;;;;;;;34.88;15.93;;;11.00;99.90;;;;;;5031415;28;20037;-57
2022/04/16 02:04:03;;;;;;;35.45;17.23;;;11.00;99.90;;;;;;5032967;28;20136;-58
2022/04/16 02:06:30;;;;;;;34.10;17.27;;;11.00;99.90;;;;;;5029940;28;20408;-56
2022/04/16 02:08:59;;;;;;;39.45;17.85;;;11.00;99.90;;;;;;5031445;28;20049;-58
2022/04/16 02:11:25;;;;;;;39.05;16.63;;;11.00;99.90;;;;;;5032330;28;20124;-58
2022/04/16 02:13:52;;;;;;;38.83;17.63;;;10.90;99.90;;;;;;5032922;28;20649;-58
2022/04/16 02:16:19;;;;;;;45.17;18.55;;;10.90;99.90;;;;;;5032369;28;20081;-56
2022/04/16 02:18:46;;;;;;;43.35;18.05;;;10.90;99.90;;;;;;5032431;28;20045;-58
2022/04/16 02:21:12;;;;;;;50.53;20.13;;;10.80;99.90;;;;;;5032110;28;20077;-58
2022/04/16 02:23:39;;;;;;;54.15;21.77;;;10.80;99.90;;;;;;5032517;28;20128;-57
2022/04/16 02:26:09;;;;;;;46.90;21.30;;;10.80;99.90;;;;;;5032199;28;20121;-56
2022/04/16 02:28:36;;;;;;;51.47;21.38;;;10.70;99.90;;;;;;5032240;28;20049;-58
2022/04/16 02:31:03;;;;;;;50.10;21.48;;;10.70;99.90;;;;;;5032150;28;20076;-58
2022/04/16 02:33:30;;;;;;;57.70;21.33;;;10.70;99.90;;;;;;5033609;28;20560;-59
2022/04/16 02:35:58;;;;;;;61.97;23.27;;;10.70;99.90;;;;;;5033335;28;20111;-57
2022/04/16 02:38:25;;;;;;;60.30;24.25;;;10.70;99.90;;;;;;5016944;28;20049;-58
2022/04/16 02:40:52;;;;;;;67.32;24.25;;;10.60;99.90;;;;;;5035215;28;20050;-58
2022/04/16 02:43:19;;;;;;;56.60;23.25;;;10.60;99.90;;;;;;5035038;28;20085;-58
2022/04/16 02:48:33;;;;;;;62.20;27.08;;;10.50;99.90;;;;;;5034292;28;20072;-56
2022/04/16 02:51:00;;;;;;;58.03;25.65;;;10.60;99.90;;;;;;5031194;28;20008;-56
2022/04/16 02:53:26;;;;;;;63.38;25.60;;;10.50;99.90;;;;;;5033645;28;20057;-55
2022/04/16 02:55:56;;;;;;;59.00;25.90;;;10.50;99.90;;;;;;5034460;28;20477;-58
2022/04/16 02:58:23;;;;;;;59.90;25.92;;;10.50;99.90;;;;;;5033631;28;20078;-58
2022/04/16 03:00:50;;;;;;;62.63;24.98;;;10.50;99.90;;;;;;5034381;28;20113;-58
2022/04/16 03:03:16;;;;;;;59.42;25.55;;;10.60;99.90;;;;;;5032974;28;20088;-57
2022/04/16 03:05:43;;;;;;;70.32;28.05;;;10.50;99.90;;;;;;5027958;28;20080;-57
2022/04/16 03:08:12;;;;;;;64.55;26.88;;;10.60;99.90;;;;;;5028563;28;20049;-55
2022/04/16 03:10:39;;;;;;;66.07;26.48;;;10.50;99.90;;;;;;5011649;28;20049;-58
2022/04/16 03:13:06;;;;;;;62.70;26.05;;;10.50;99.90;;;;;;5025673;28;20073;-57
2022/04/16 03:18:19;;;;;;;62.83;25.23;;;10.40;99.90;;;;;;5031487;28;20475;-57
2022/04/16 03:20:46;;;;;;;71.35;26.77;;;10.40;99.90;;;;;;5030294;28;20132;-57
2022/04/16 03:23:13;;;;;;;63.08;27.30;;;10.30;99.90;;;;;;5031116;28;20155;-56
2022/04/16 03:25:41;;;;;;;71.43;28.65;;;10.30;99.90;;;;;;5030035;28;20067;-57
2022/04/16 03:28:08;;;;;;;65.60;26.77;;;10.30;99.90;;;;;;5030987;28;20129;-56
2022/04/16 03:30:35;;;;;;;63.40;27.60;;;10.30;99.90;;;;;;5031556;28;20054;-55
2022/04/16 03:33:02;;;;;;;64.95;27.85;;;10.30;99.90;;;;;;5031144;28;20064;-56
2022/04/16 03:35:29;;;;;;;71.13;28.45;;;10.30;99.90;;;;;;5030390;28;20092;-54
2022/04/16 03:37:55;;;;;;;73.72;32.10;;;10.30;99.90;;;;;;5031172;28;20111;-57
2022/04/16 03:40:26;;;;;;;68.40;30.52;;;10.30;99.90;;;;;;5031432;28;20084;-57
2022/04/16 03:42:58;;;;;;;78.50;32.05;;;10.20;99.90;;;;;;5030848;28;20038;-56
2022/04/16 03:45:27;;;;;;;75.43;30.42;;;10.20;99.90;;;;;;5029696;28;20151;-56
2022/04/16 03:47:55;;;;;;;70.10;30.30;;;10.20;99.90;;;;;;5031332;28;20053;-57
2022/04/16 03:50:23;;;;;;;79.85;33.40;;;10.20;99.90;;;;;;5031002;28;20485;-58
2022/04/16 03:52:50;;;;;;;71.70;30.55;;;10.10;99.90;;;;;;5029343;28;20653;-57
2022/04/16 04:00:53;;;;;;;74.78;33.45;;;10.10;99.90;;;;;;5030961;28;20092;-56
2022/04/16 04:03:23;;;;;;;84.75;34.22;;;10.00;99.90;;;;;;5028102;28;20069;-57
2022/04/16 04:05:53;;;;;;;78.90;33.88;;;10.00;99.90;;;;;;5027734;28;20076;-57
2022/04/16 04:08:20;;;;;;;80.15;34.15;;;10.00;99.90;;;;;;5030736;28;20053;-55
2022/04/16 04:10:47;;;;;;;76.65;33.17;;;10.00;99.90;;;;;;5030639;28;20238;-57
2022/04/16 04:13:14;;;;;;;72.28;32.60;;;10.00;99.90;;;;;;5030795;28;20111;-55
2022/04/16 04:15:41;;;;;;;76.75;33.28;;;10.00;99.90;;;;;;5029313;28;20051;-56
2022/04/16 04:18:08;;;;;;;77.15;34.33;;;10.00;99.90;;;;;;5031018;28;20046;-55
2022/04/16 04:20:35;;;;;;;85.35;35.00;;;9.90;99.90;;;;;;5029450;28;20148;-56
2022/04/16 04:23:03;;;;;;;83.10;34.92;;;9.90;99.90;;;;;;5011672;28;20082;-57
2022/04/16 04:25:30;;;;;;;77.75;36.10;;;9.90;99.90;;;;;;5027608;28;20073;-57
2022/04/16 04:27:57;;;;;;;78.57;34.63;;;9.90;99.90;;;;;;5034270;28;20140;-55
2022/04/16 04:30:23;;;;;;;87.95;36.28;;;9.90;99.90;;;;;;5033086;28;20073;-56
2022/04/16 04:32:50;;;;;;;85.82;34.78;;;9.90;99.90;;;;;;5034291;28;20077;-58
2022/04/16 04:35:17;;;;;;;84.68;37.15;;;9.90;99.90;;;;;;5032314;28;20077;-56
2022/04/16 04:37:45;;;;;;;76.70;34.55;;;9.90;99.90;;;;;;5034248;28;20084;-56
2022/04/16 04:40:12;;;;;;;84.00;34.72;;;9.90;99.90;;;;;;5033883;28;20053;-56
2022/04/16 04:42:39;;;;;;;76.50;35.10;;;9.90;99.90;;;;;;5033645;28;20072;-57
2022/04/16 04:45:10;;;;;;;76.80;34.58;;;9.90;99.90;;;;;;5033757;28;20049;-56
2022/04/16 04:47:37;;;;;;;94.70;38.75;;;9.90;99.90;;;;;;5014430;28;20042;-58
2022/04/16 04:50:04;;;;;;;84.25;34.90;;;9.90;99.90;;;;;;5000269;28;20111;-57
2022/04/16 04:52:31;;;;;;;80.32;33.10;;;9.80;99.90;;;;;;5016324;28;20480;-58
2022/04/16 04:54:59;;;;;;;81.50;37.45;;;9.80;99.90;;;;;;5032500;28;20037;-57
2022/04/16 04:57:26;;;;;;;80.40;36.45;;;9.80;99.90;;;;;;5033421;28;20128;-57
2022/04/16 04:59:53;;;;;;;83.22;34.33;;;9.80;99.90;;;;;;5032661;28;20041;-57
2022/04/16 05:02:20;;;;;;;91.72;38.78;;;9.80;99.90;;;;;;5032445;28;20124;-58
2022/04/16 05:04:47;;;;;;;84.45;35.17;;;9.80;99.90;;;;;;5026538;28;20046;-57
2022/04/16 05:07:14;;;;;;;84.20;35.05;;;9.70;99.90;;;;;;5031423;28;20140;-57
2022/04/16 05:09:41;;;;;;;83.93;36.83;;;9.70;99.90;;;;;;5033701;28;20459;-56
2022/04/16 05:12:09;;;;;;;84.35;36.05;;;9.70;99.90;;;;;;5033005;28;20089;-57
2022/04/16 05:14:36;;;;;;;81.97;36.30;;;9.70;99.90;;;;;;5032421;28;20132;-56
2022/04/16 05:17:03;;;;;;;87.85;34.67;;;9.60;99.90;;;;;;5033756;28;20043;-58
2022/04/16 05:19:29;;;;;;;74.18;33.30;;;9.70;99.90;;;;;;5032245;28;20076;-57
2022/04/16 05:21:56;;;;;;;73.47;33.50;;;9.70;99.90;;;;;;5033230;28;20115;-57
2022/04/16 05:24:23;;;;;;;80.45;33.85;;;9.60;99.90;;;;;;5033628;28;20077;-56
2022/04/16 05:26:50;;;;;;;74.78;35.38;;;9.60;99.90;;;;;;5033287;28;20100;-58
2022/04/16 05:29:17;;;;;;;83.85;35.75;;;9.60;99.90;;;;;;5033394;28;20116;-57
2022/04/16 05:31:44;;;;;;;84.35;36.22;;;9.60;99.90;;;;;;5032911;28;20067;-58
2022/04/16 05:34:20;;;;;;;83.03;35.38;;;9.70;99.90;;;;;;5032228;28;20098;-58
2022/04/16 05:36:48;;;;;;;87.07;35.60;;;9.70;99.90;;;;;;5029311;28;20098;-58
2022/04/16 05:39:16;;;;;;;78.47;35.67;;;9.70;99.90;;;;;;5031129;28;20049;-58
2022/04/16 05:41:43;;;;;;;77.38;34.40;;;9.70;99.90;;;;;;5032643;28;20488;-58
2022/04/16 05:44:10;;;;;;;81.03;35.03;;;9.70;99.90;;;;;;5015729;28;20077;-57
2022/04/16 05:46:37;;;;;;;79.60;36.00;;;9.70;99.90;;;;;;5032694;28;20050;-58
2022/04/16 05:49:04;;;;;;;79.60;35.47;;;9.70;99.90;;;;;;5032683;28;20048;-58
2022/04/16 05:51:31;;;;;;;84.85;37.70;;;9.60;99.90;;;;;;5032620;28;20058;-57
2022/04/16 05:53:57;;;;;;;82.35;38.22;;;9.70;99.90;;;;;;5032680;28;20451;-58
2022/04/16 05:56:24;;;;;;;82.75;35.85;;;9.70;99.90;;;;;;5032696;28;20148;-58
2022/04/16 05:58:51;;;;;;;70.95;34.97;;;9.80;99.90;;;;;;5031167;28;20132;-58
2022/04/16 06:01:18;;;;;;;80.25;36.20;;;9.80;99.90;;;;;;5032800;28;20132;-55
2022/04/16 06:03:45;;;;;;;82.32;35.30;;;9.80;99.90;;;;;;5031219;28;20061;-57
2022/04/16 06:06:12;;;;;;;74.05;34.92;;;9.80;99.90;;;;;;5031731;28;20037;-56
2022/04/16 06:08:39;;;;;;;79.60;35.00;;;9.80;99.90;;;;;;5032426;28;20108;-55
2022/04/16 06:11:06;;;;;;;72.47;34.58;;;9.90;99.90;;;;;;5032452;28;20128;-58
2022/04/16 06:13:33;;;;;;;78.53;36.05;;;9.90;99.90;;;;;;5032189;28;20481;-57
2022/04/16 06:16:00;;;;;;;66.75;34.10;;;9.90;99.90;;;;;;5032422;28;20049;-55
2022/04/16 06:18:26;;;;;;;71.47;34.67;;;10.00;99.90;;;;;;5032083;28;20045;-57
2022/04/16 06:20:55;;;;;;;70.32;35.72;;;10.00;99.90;;;;;;5032000;28;20091;-57
2022/04/16 06:23:22;;;;;;;74.90;34.83;;;10.10;99.90;;;;;;5032116;28;20049;-57
2022/04/16 06:25:49;;;;;;;72.75;35.22;;;10.10;99.90;;;;;;5021090;28;20504;-58
2022/04/16 06:28:16;;;;;;;83.90;36.63;;;10.10;99.90;;;;;;5031905;28;20042;-58
2022/04/16 06:30:42;;;;;;;68.25;34.90;;;10.20;99.90;;;;;;5031751;28;20080;-58
2022/04/16 06:33:09;;;;;;;80.38;36.78;;;10.20;99.90;;;;;;5030463;28;20041;-57
2022/04/16 06:35:36;;;;;;;72.43;35.35;;;10.30;99.90;;;;;;5029352;28;20080;-58
2022/04/16 06:38:03;;;;;;;68.03;36.97;;;10.40;99.90;;;;;;5012494;28;20085;-58
2022/04/16 06:40:30;;;;;;;64.43;33.05;;;10.40;99.90;;;;;;5030358;28;20104;-59
2022/04/16 06:42:56;;;;;;;67.95;36.05;;;10.40;99.90;;;;;;5031745;28;20133;-58
2022/04/16 06:45:23;;;;;;;73.10;38.05;;;10.50;99.90;;;;;;5031448;28;20080;-57
2022/04/16 06:47:50;;;;;;;78.88;37.13;;;10.50;99.90;;;;;;5031391;28;20046;-57
2022/04/16 06:50:17;;;;;;;70.40;39.25;;;10.60;99.90;;;;;;5030204;28;20053;-56
2022/04/16 06:52:45;;;;;;;71.38;35.67;;;10.60;99.90;;;;;;5030570;28;20045;-57
2022/04/16 06:55:12;;;;;;;71.72;36.35;;;10.60;99.90;;;;;;5031614;28;20135;-57
2022/04/16 06:57:39;;;;;;;68.57;35.85;;;10.70;99.90;;;;;;5030357;28;20077;-57
2022/04/16 07:00:06;;;;;;;69.45;34.22;;;10.70;99.90;;;;;;5031358;28;20044;-57
2022/04/16 07:02:34;;;;;;;74.10;36.10;;;10.60;99.90;;;;;;5031203;28;20072;-58
2022/04/16 07:05:02;;;;;;;70.63;35.88;;;10.70;99.90;;;;;;5030978;28;20065;-58
2022/04/16 07:07:29;;;;;;;69.22;36.55;;;10.70;99.90;;;;;;5025648;28;20057;-59
2022/04/16 07:09:56;;;;;;;70.28;36.25;;;10.70;99.90;;;;;;5023538;28;20045;-58
2022/04/16 07:12:23;;;;;;;69.60;37.38;;;10.80;99.90;;;;;;5026322;28;20041;-58
2022/04/16 07:14:50;;;;;;;77.32;40.00;;;10.80;99.90;;;;;;5019696;28;20053;-58
2022/04/16 07:17:19;;;;;;;75.57;38.42;;;10.80;99.90;;;;;;5031536;28;20059;-58
2022/04/16 07:19:46;;;;;;;70.90;38.15;;;10.90;99.90;;;;;;5029909;28;20099;-59
2022/04/16 07:22:13;;;;;;;70.32;37.42;;;11.00;99.90;;;;;;5009099;28;20095;-58
2022/04/16 07:24:42;;;;;;;75.70;38.25;;;11.10;99.90;;;;;;5021422;28;20081;-58
2022/04/16 07:27:09;;;;;;;67.18;37.63;;;11.00;99.90;;;;;;5026642;28;20451;-58
2022/04/16 07:29:36;;;;;;;78.47;37.67;;;11.00;99.90;;;;;;5020980;28;20125;-56
2022/04/16 07:32:03;;;;;;;73.15;37.85;;;11.10;99.90;;;;;;5023957;28;20052;-58
2022/04/16 07:34:30;;;;;;;77.13;40.47;;;11.10;99.90;;;;;;5020630;28;20125;-58
2022/04/16 07:36:57;;;;;;;77.03;41.65;;;11.10;99.90;;;;;;5028046;28;20060;-57
2022/04/16 07:39:24;;;;;;;78.25;39.83;;;11.10;99.90;;;;;;5028825;28;20073;-56
2022/04/16 07:41:51;;;;;;;77.35;40.72;;;11.20;99.90;;;;;;5029423;28;20080;-57
2022/04/16 07:44:18;;;;;;;76.78;41.63;;;11.20;99.90;;;;;;5029821;28;20136;-57
2022/04/16 07:46:45;;;;;;;81.40;43.78;;;11.30;99.90;;;;;;5029417;28;20472;-57
2022/04/16 07:49:12;;;;;;;85.35;44.20;;;11.40;99.90;;;;;;5029799;28;20096;-58
2022/04/16 07:51:38;;;;;;;78.38;45.83;;;11.30;99.90;;;;;;5020788;28;20133;-57
2022/04/16 07:54:05;;;;;;;88.45;46.38;;;11.40;99.90;;;;;;5025120;28;20038;-59
2022/04/16 07:56:32;;;;;;;80.07;43.17;;;11.30;99.90;;;;;;5016447;28;20041;-59
2022/04/16 07:58:59;;;;;;;82.50;44.88;;;11.50;99.90;;;;;;5024212;28;20485;-58
2022/04/16 08:01:27;;;;;;;87.05;44.63;;;11.50;99.90;;;;;;5030677;28;20081;-58
2022/04/16 08:03:54;;;;;;;73.03;41.72;;;11.50;99.90;;;;;;5034050;28;20049;-57
2022/04/16 08:06:21;;;;;;;83.65;44.80;;;11.60;99.90;;;;;;4681647;28;9999989;-58
2022/04/16 08:08:48;;;;;;;79.40;44.50;;;11.60;99.90;;;;;;5030804;28;20069;-59
2022/04/16 08:11:15;;;;;;;72.85;40.95;;;11.70;99.90;;;;;;5030094;28;20053;-59
2022/04/16 08:13:41;;;;;;;68.07;42.78;;;11.80;99.90;;;;;;5030931;28;20140;-58
2022/04/16 08:16:08;;;;;;;73.55;41.45;;;11.80;99.90;;;;;;5029248;28;20485;-57
2022/04/16 08:18:36;;;;;;;66.63;39.00;;;11.80;99.90;;;;;;5030410;28;20067;-58
2022/04/16 08:21:03;;;;;;;70.78;38.83;;;11.90;99.90;;;;;;5030068;28;20119;-58
2022/04/16 08:23:32;;;;;;;69.68;39.03;;;12.00;99.90;;;;;;5029949;28;20081;-59
2022/04/16 08:25:59;;;;;;;82.07;42.95;;;12.00;99.90;;;;;;5029997;28;20084;-61
2022/04/16 08:28:26;;;;;;;66.05;38.33;;;12.10;99.90;;;;;;5029314;28;20049;-60
2022/04/16 08:30:54;;;;;;;64.18;38.83;;;12.20;99.90;;;;;;5029450;28;20401;-59
2022/04/16 08:33:21;;;;;;;70.28;39.65;;;12.20;99.90;;;;;;5029839;28;20104;-59
2022/04/16 08:35:48;;;;;;;63.83;37.47;;;12.30;99.90;;;;;;5019013;28;20141;-58
2022/04/16 08:38:15;;;;;;;64.13;36.45;;;12.40;99.90;;;;;;5018307;28;20141;-59
2022/04/16 08:40:42;;;;;;;69.20;38.10;;;12.60;99.90;;;;;;5029594;28;20139;-58
2022/04/16 08:43:13;;;;;;;63.53;36.83;;;12.70;99.90;;;;;;5029418;28;20088;-59
2022/04/16 08:45:40;;;;;;;64.65;39.72;;;12.80;99.90;;;;;;5029675;28;20107;-59
2022/04/16 08:48:08;;;;;;;67.65;38.20;;;12.80;99.90;;;;;;5029394;28;20111;-57
2022/04/16 08:50:35;;;;;;;61.92;36.67;;;12.90;99.90;;;;;;5028129;28;20092;-56
2022/04/16 08:53:01;;;;;;;76.30;39.90;;;13.00;99.90;;;;;;5027759;28;20434;-57
2022/04/16 08:55:29;;;;;;;60.28;35.75;;;13.10;99.90;;;;;;5029548;28;20128;-58
2022/04/16 08:57:56;;;;;;;60.08;36.40;;;13.20;99.90;;;;;;5029259;28;20053;-58
2022/04/16 09:00:23;;;;;;;57.38;36.45;;;13.30;99.90;;;;;;5028284;28;20052;-57
2022/04/16 09:03:03;;;;;;;59.70;33.22;;;13.30;99.90;;;;;;5029403;28;20081;-57
2022/04/16 09:05:30;;;;;;;54.35;34.63;;;13.40;99.90;;;;;;5026233;28;20131;-58
2022/04/16 09:07:58;;;;;;;58.05;34.97;;;13.50;99.90;;;;;;5029108;28;20132;-58
2022/04/16 09:10:25;;;;;;;50.67;31.65;;;13.60;99.90;;;;;;5028374;28;20539;-57
2022/04/16 09:12:53;;;;;;;56.70;35.15;;;13.70;99.90;;;;;;5028814;28;20128;-58
2022/04/16 09:15:21;;;;;;;52.40;33.22;;;13.80;99.90;;;;;;5029499;28;20057;-57
2022/04/16 09:17:58;;;;;;;49.33;33.05;;;13.80;99.90;;;;;;5027262;28;20084;-58
2022/04/16 09:20:29;;;;;;;53.00;33.30;;;13.90;99.90;;;;;;5028359;28;20099;-58
2022/04/16 09:22:56;;;;;;;48.67;32.15;;;14.00;99.90;;;;;;5027669;28;20087;-57
2022/04/16 09:25:22;;;;;;;49.53;33.53;;;14.10;99.90;;;;;;5025718;28;20080;-58
2022/04/16 09:27:50;;;;;;;46.63;30.58;;;14.00;99.90;;;;;;5027120;28;20080;-58
2022/04/16 09:30:29;;;;;;;48.92;32.67;;;14.10;99.90;;;;;;5024220;28;20049;-58
2022/04/16 09:32:56;;;;;;;45.45;30.50;;;14.20;99.90;;;;;;5027830;28;20085;-58
2022/04/16 09:35:27;;;;;;;41.45;28.33;;;14.40;99.90;;;;;;5023578;28;20284;-58
2022/04/16 09:38:10;;;;;;;42.50;29.52;;;14.60;99.90;;;;;;5025647;28;20081;-59
2022/04/16 09:40:37;;;;;;;41.83;27.58;;;15.00;99.90;;;;;;5027790;28;20111;-58
2022/04/16 09:43:05;;;;;;;37.55;26.50;;;15.30;99.90;;;;;;5011016;28;20049;-59
2022/04/16 09:45:32;;;;;;;40.10;26.48;;;15.60;99.90;;;;;;5027776;28;20137;-59
2022/04/16 09:47:59;;;;;;;37.90;25.35;;;15.80;99.90;;;;;;5028490;28;20073;-59
2022/04/16 09:50:27;;;;;;;36.38;25.73;;;16.00;99.90;;;;;;5028225;28;20865;-59
2022/04/16 09:52:55;;;;;;;34.42;22.67;;;16.30;99.90;;;;;;5027823;28;20061;-59
2022/04/16 09:55:23;;;;;;;36.78;23.77;;;16.40;99.90;;;;;;5027976;28;20076;-59
2022/04/16 09:57:52;;;;;;;32.00;21.88;;;16.50;99.90;;;;;;5026964;28;20085;-59
2022/04/16 10:00:19;;;;;;;30.70;21.30;;;16.60;99.90;;;;;;5028095;28;20050;-58
2022/04/16 10:02:46;;;;;;;30.35;21.10;;;16.90;99.90;;;;;;5028112;28;20441;-59
2022/04/16 10:05:13;;;;;;;36.63;21.38;;;17.00;99.90;;;;;;5026094;28;20049;-59
2022/04/16 10:07:42;;;;;;;30.48;21.95;;;17.00;99.90;;;;;;5019411;28;20045;-59
2022/04/16 10:10:18;;;;;;;33.83;21.38;;;17.00;99.80;;;;;;5022646;28;20592;-59
2022/04/16 10:13:00;;;;;;;32.20;22.08;;;17.00;99.80;;;;;;5025040;28;20056;-59
2022/04/16 10:15:38;;;;;;;31.58;20.25;;;17.10;99.60;;;;;;5024952;28;20053;-59
2022/04/16 10:18:05;;;;;;;31.00;22.25;;;16.90;99.00;;;;;;5020704;28;20056;-58
2022/04/16 10:20:32;;;;;;;29.70;20.88;;;16.80;99.70;;;;;;5024326;28;20169;-58
2022/04/16 10:23:07;;;;;;;32.85;20.42;;;16.70;99.60;;;;;;5021989;28;20223;-58
2022/04/16 10:25:35;;;;;;;34.63;22.60;;;16.60;99.30;;;;;;5017439;28;20049;-58
2022/04/16 10:28:06;;;;;;;25.15;19.33;;;16.50;99.60;;;;;;5023713;28;20570;-59
2022/04/16 10:30:49;;;;;;;28.75;19.00;;;16.30;99.60;;;;;;5026428;28;20478;-59
2022/04/16 10:33:25;;;;;;;27.80;18.40;;;16.20;99.30;;;;;;5025633;28;20045;-58
2022/04/16 10:35:57;;;;;;;24.60;18.00;;;16.20;99.10;;;;;;5027305;28;20554;-59
2022/04/16 10:38:34;;;;;;;26.33;19.15;;;16.20;99.60;;;;;;5027227;28;20198;-59
2022/04/16 10:41:02;;;;;;;27.27;17.48;;;16.20;98.60;;;;;;5027196;28;20088;-58
2022/04/16 10:44:01;;;;;;;27.83;17.55;;;16.10;99.80;;;;;;5027124;28;20053;-58
2022/04/16 10:46:48;;;;;;;29.60;17.48;;;16.20;99.10;;;;;;5028180;28;20127;-58
2022/04/16 10:49:16;;;;;;;24.60;16.00;;;16.20;98.60;;;;;;5025198;28;20124;-58
2022/04/16 10:51:43;;;;;;;19.38;14.38;;;16.20;98.90;;;;;;5027575;28;20115;-58
2022/04/16 10:54:36;;;;;;;22.67;14.88;;;16.10;98.60;;;;;;5010073;28;20154;-59
2022/04/16 10:57:04;;;;;;;25.97;16.87;;;16.20;98.60;;;;;;5027454;28;20156;-59
2022/04/16 10:59:41;;;;;;;19.25;15.00;;;16.20;98.70;;;;;;5022788;28;20360;-59
2022/04/16 11:02:21;;;;;;;22.38;12.95;;;16.20;98.00;;;;;;5027155;28;20559;-59
2022/04/16 11:05:15;;;;;;;18.63;13.77;;;16.30;96.80;;;;;;5013554;28;20060;-59
2022/04/16 11:07:42;;;;;;;19.80;13.95;;;16.30;96.70;;;;;;5025033;28;20087;-57
2022/04/16 11:10:10;;;;;;;18.80;12.90;;;16.40;98.00;;;;;;5027385;28;20544;-58
2022/04/16 11:12:40;;;;;;;19.83;11.55;;;16.40;96.60;;;;;;5027128;28;20060;-58
2022/04/16 11:15:14;;;;;;;17.75;10.85;;;16.40;96.80;;;;;;5027517;28;20053;-58
2022/04/16 11:17:41;;;;;;;14.20;10.63;;;16.50;95.10;;;;;;5026990;28;20050;-59
2022/04/16 11:20:08;;;;;;;23.75;11.80;;;16.50;96.20;;;;;;5009818;28;20481;-58
2022/04/16 11:22:35;;;;;;;16.17;11.15;;;16.50;96.20;;;;;;5027390;28;20691;-58
2022/04/16 11:25:05;;;;;;;16.17;11.70;;;16.50;96.10;;;;;;5026325;28;20053;-59
2022/04/16 11:36:00;;;;;;;19.95;11.98;;;16.80;96.00;;;;;;5040126;28;20296;-59
2022/04/16 11:38:29;;;;;;;17.80;13.15;;;16.70;93.40;;;;;;5025457;28;20141;-59
2022/04/16 11:40:59;;;;;;;17.13;12.05;;;16.70;95.90;;;;;;5026954;28;20107;-59
2022/04/16 11:43:29;;;;;;;24.15;13.68;;;16.70;95.60;;;;;;5025787;28;20084;-59
2022/04/16 11:46:01;;;;;;;19.48;12.43;;;16.80;95.90;;;;;;5025937;28;20041;-59
2022/04/16 11:48:30;;;;;;;21.67;13.48;;;16.90;95.90;;;;;;5027169;28;20558;-58
2022/04/16 11:50:57;;;;;;;21.40;15.50;;;17.10;96.10;;;;;;5026808;28;20124;-60
2022/04/16 11:53:24;;;;;;;20.15;14.73;;;17.20;96.30;;;;;;5025472;28;20053;-59
2022/04/16 11:55:59;;;;;;;25.10;15.45;;;17.20;96.10;;;;;;5025187;28;20492;-58
2022/04/16 11:58:27;;;;;;;22.92;16.02;;;17.10;95.70;;;;;;5009009;28;20056;-59
2022/04/16 12:00:55;;;;;;;27.73;18.00;;;17.10;96.30;;;;;;5026890;28;20456;-58
2022/04/16 12:03:33;;;;;;;29.33;16.55;;;17.20;96.70;;;;;;5012309;28;20374;-59
2022/04/16 12:06:00;;;;;;;30.88;18.02;;;17.20;96.80;;;;;;5026123;28;20079;-59
2022/04/16 12:08:27;;;;;;;27.23;17.67;;;17.30;96.70;;;;;;5027162;28;20085;-59
2022/04/16 12:10:56;;;;;;;25.08;16.88;;;17.20;96.90;;;;;;5026206;28;20050;-59
2022/04/16 12:13:22;;;;;;;30.92;16.27;;;17.30;97.00;;;;;;5026552;28;20053;-59
2022/04/16 12:15:49;;;;;;;22.88;17.00;;;17.50;96.50;;;;;;5026695;28;20051;-59
2022/04/16 12:18:22;;;;;;;24.70;17.30;;;17.50;96.40;;;;;;5026446;28;20049;-58
2022/04/16 12:20:49;;;;;;;22.80;17.55;;;17.50;96.60;;;;;;5024504;28;20187;-59
2022/04/16 12:23:19;;;;;;;21.00;15.52;;;17.50;96.70;;;;;;5026216;28;20081;-60
2022/04/16 12:25:47;;;;;;;23.63;15.57;;;17.60;96.10;;;;;;5025067;28;20374;-60
2022/04/16 12:28:14;;;;;;;23.05;15.52;;;17.60;96.00;;;;;;5025903;28;20053;-60
2022/04/16 12:30:49;;;;;;;27.33;15.93;;;17.60;96.00;;;;;;5029070;28;20332;-60
2022/04/16 12:33:15;;;;;;;28.98;15.27;;;17.70;95.50;;;;;;5021768;28;20080;-61
2022/04/16 12:35:47;;;;;;;24.83;16.02;;;17.70;95.80;;;;;;5013702;28;20140;-60
2022/04/16 12:38:17;;;;;;;22.77;15.50;;;17.80;95.80;;;;;;5018639;28;20140;-58
2022/04/16 12:40:44;;;;;;;22.73;15.63;;;17.80;95.60;;;;;;5029413;28;20049;-60
2022/04/16 12:43:11;;;;;;;24.48;15.57;;;17.90;95.70;;;;;;5028039;28;20128;-60
2022/04/16 12:45:38;;;;;;;21.35;16.10;;;17.90;95.90;;;;;;5032209;28;20046;-59
2022/04/16 12:48:06;;;;;;;22.50;16.40;;;17.90;95.00;;;;;;5032506;28;20230;-59
2022/04/16 12:50:35;;;;;;;29.73;14.45;;;17.90;95.60;;;;;;5032817;28;20398;-60
2022/04/16 12:53:04;;;;;;;19.88;15.02;;;18.00;95.50;;;;;;5031061;28;20045;-60